Time;durP1;ratioP1;P1;durP2;ratioP2;P2;SDS_P1;SDS_P2;PMS_P1;PMS_P2;Temp;Humidity;BMP_temperature;BMP_pressure;BME280_temperature;BME280_humidity;BME280_pressure;Samples;Min_cycle;Max_cycle;Signal;HPM_P1;HPM_P2
2023/04/15 00:01:18;;;;;;;11.10;7.63;;;7.90;99.90;;;;;;4889028;29;20087;-63
2023/04/15 00:03:46;;;;;;;10.85;8.43;;;7.90;99.90;;;;;;4889047;29;20048;-63
2023/04/15 00:06:13;;;;;;;11.63;8.10;;;8.00;99.90;;;;;;4887627;29;20057;-63
2023/04/15 00:08:40;;;;;;;12.95;8.32;;;7.90;99.90;;;;;;4889952;29;20631;-66
2023/04/15 00:11:07;;;;;;;13.73;7.00;;;7.90;99.90;;;;;;4888995;29;20068;-66
2023/04/15 00:13:34;;;;;;;11.20;9.38;;;7.90;99.90;;;;;;4887759;29;20036;-63
2023/04/15 00:16:01;;;;;;;14.85;7.32;;;7.80;99.90;;;;;;4888724;29;20582;-67
2023/04/15 00:18:28;;;;;;;9.35;7.18;;;7.80;99.90;;;;;;4887245;29;20172;-64
2023/04/15 00:20:55;;;;;;;10.25;6.40;;;7.80;99.90;;;;;;4887922;29;20772;-65
2023/04/15 00:23:22;;;;;;;9.90;7.13;;;7.80;99.90;;;;;;4889286;29;20048;-65
2023/04/15 00:25:49;;;;;;;11.18;6.65;;;7.80;99.90;;;;;;4886128;29;20054;-66
2023/04/15 00:28:17;;;;;;;16.58;6.75;;;7.70;99.90;;;;;;4886037;29;20071;-66
2023/04/15 00:30:44;;;;;;;12.27;7.30;;;7.70;99.90;;;;;;4890591;29;20044;-63
2023/04/15 00:33:12;;;;;;;9.95;6.82;;;7.70;99.90;;;;;;4888959;29;20591;-64
2023/04/15 00:35:39;;;;;;;12.95;7.25;;;7.60;99.90;;;;;;4884526;29;20135;-66
2023/04/15 00:38:09;;;;;;;10.93;6.32;;;7.50;99.90;;;;;;4890269;29;20392;-63
2023/04/15 00:40:37;;;;;;;11.30;6.50;;;7.40;99.90;;;;;;4889112;29;20056;-66
2023/04/15 00:43:04;;;;;;;8.75;6.68;;;7.40;99.90;;;;;;4890832;29;20897;-66
2023/04/15 00:45:32;;;;;;;11.20;6.32;;;7.30;99.90;;;;;;4870212;29;20057;-66
2023/04/15 00:47:59;;;;;;;13.15;5.95;;;7.30;99.90;;;;;;4886013;29;20063;-66
2023/04/15 00:50:26;;;;;;;8.98;6.05;;;7.20;99.90;;;;;;4886858;29;20064;-64
2023/04/15 00:52:53;;;;;;;8.55;6.32;;;7.20;99.90;;;;;;4889831;29;20087;-66
2023/04/15 00:55:20;;;;;;;8.98;6.70;;;7.10;99.90;;;;;;4888082;29;20058;-65
2023/04/15 00:57:47;;;;;;;7.88;5.97;;;7.10;99.90;;;;;;4885006;29;20112;-67
2023/04/15 01:00:15;;;;;;;14.57;7.13;;;7.10;99.90;;;;;;4884297;29;20059;-65
2023/04/15 01:02:42;;;;;;;11.88;6.82;;;7.00;99.90;;;;;;4888897;29;20048;-67
2023/04/15 01:05:09;;;;;;;9.43;5.68;;;7.00;99.90;;;;;;4888479;29;20088;-65
2023/04/15 01:07:36;;;;;;;8.82;6.45;;;6.90;99.90;;;;;;4888430;29;20136;-64
2023/04/15 01:10:04;;;;;;;7.82;6.15;;;6.90;99.90;;;;;;4891007;29;20144;-66
2023/04/15 01:12:33;;;;;;;7.35;6.10;;;6.80;99.90;;;;;;4883804;29;20187;-63
2023/04/15 01:15:01;;;;;;;9.65;4.90;;;6.80;99.90;;;;;;4888160;29;20049;-66
2023/04/15 01:17:28;;;;;;;6.78;5.57;;;6.80;99.90;;;;;;4887803;29;20088;-66
2023/04/15 01:19:58;;;;;;;11.40;8.02;;;6.80;99.90;;;;;;4888380;29;20056;-65
2023/04/15 01:22:26;;;;;;;9.40;6.07;;;6.70;99.90;;;;;;4887165;29;20059;-63
2023/04/15 01:25:07;;;;;;;8.85;6.78;;;6.70;99.90;;;;;;4888397;29;20451;-63
2023/04/15 01:27:36;;;;;;;7.68;5.07;;;6.70;99.90;;;;;;4890718;29;20778;-64
2023/04/15 01:30:04;;;;;;;16.60;6.25;;;6.70;99.90;;;;;;4884615;29;20487;-66
2023/04/15 01:32:31;;;;;;;8.90;5.43;;;6.70;99.90;;;;;;4883479;29;20131;-67
2023/04/15 01:34:58;;;;;;;8.25;6.05;;;6.70;99.90;;;;;;4888265;29;20052;-68
2023/04/15 01:37:26;;;;;;;5.90;4.50;;;6.70;99.90;;;;;;4888851;29;20060;-63
2023/04/15 01:39:53;;;;;;;7.45;6.28;;;6.70;99.90;;;;;;4881881;29;20056;-70
2023/04/15 01:42:21;;;;;;;8.98;5.85;;;6.70;99.90;;;;;;4869203;29;20060;-66
2023/04/15 01:44:48;;;;;;;9.68;5.50;;;6.70;99.90;;;;;;4876326;29;20128;-67
2023/04/15 01:47:15;;;;;;;7.38;5.13;;;6.70;99.90;;;;;;4889140;29;20143;-63
2023/04/15 01:49:42;;;;;;;9.13;5.13;;;6.70;99.90;;;;;;4889719;29;20052;-66
2023/04/15 01:52:09;;;;;;;6.63;5.55;;;6.70;99.90;;;;;;4872871;29;20053;-62
2023/04/15 01:54:36;;;;;;;8.02;4.40;;;6.70;99.90;;;;;;4891433;29;20407;-70
2023/04/15 01:57:04;;;;;;;10.10;5.70;;;6.70;99.90;;;;;;4889205;29;20052;-65
2023/04/15 01:59:31;;;;;;;8.50;5.63;;;6.60;99.90;;;;;;4890987;29;20407;-63
2023/04/15 02:01:58;;;;;;;6.28;5.43;;;6.60;99.90;;;;;;4874611;29;20091;-70
2023/04/15 02:04:26;;;;;;;11.63;5.93;;;6.60;99.90;;;;;;4873045;29;23484;-63
2023/04/15 02:06:53;;;;;;;6.65;5.35;;;6.70;99.90;;;;;;4887092;29;20379;-65
2023/04/15 02:09:20;;;;;;;10.68;5.70;;;6.60;99.90;;;;;;4891822;29;20495;-65
2023/04/15 02:11:47;;;;;;;6.32;4.03;;;6.70;99.90;;;;;;4890685;29;20048;-63
2023/04/15 02:14:14;;;;;;;7.28;5.45;;;6.70;99.90;;;;;;4884024;29;20136;-65
2023/04/15 02:16:41;;;;;;;5.72;3.92;;;6.70;99.90;;;;;;4890277;29;20765;-65
2023/04/15 02:19:08;;;;;;;8.48;5.60;;;6.70;99.90;;;;;;4892074;29;20060;-63
2023/04/15 02:21:36;;;;;;;7.22;3.97;;;6.70;99.90;;;;;;4887894;29;20048;-66
2023/04/15 02:24:03;;;;;;;12.13;5.03;;;6.80;99.90;;;;;;4890682;29;20052;-67
2023/04/15 02:26:33;;;;;;;6.10;4.28;;;6.80;99.90;;;;;;4888350;29;20052;-65
2023/04/15 02:29:00;;;;;;;14.48;4.55;;;6.80;99.90;;;;;;4891142;29;20132;-67
2023/04/15 02:31:27;;;;;;;6.93;4.22;;;6.80;99.90;;;;;;4893554;29;20144;-66
2023/04/15 02:33:54;;;;;;;5.18;4.68;;;6.80;99.90;;;;;;4892470;29;20391;-65
2023/04/15 02:36:22;;;;;;;7.25;4.53;;;6.90;99.90;;;;;;4887922;29;20060;-65
2023/04/15 02:38:49;;;;;;;5.97;4.10;;;6.90;99.90;;;;;;4889482;29;20049;-63
2023/04/15 02:41:16;;;;;;;7.15;4.55;;;6.90;99.90;;;;;;4878866;29;20124;-62
2023/04/15 02:43:44;;;;;;;8.77;3.83;;;6.90;99.90;;;;;;4891015;29;20053;-65
2023/04/15 02:46:13;;;;;;;6.55;3.80;;;6.90;99.90;;;;;;4879112;29;20072;-67
2023/04/15 02:48:40;;;;;;;7.25;4.05;;;6.90;99.90;;;;;;4874617;29;20048;-63
2023/04/15 02:51:19;;;;;;;4.20;3.75;;;6.90;99.90;;;;;;4889756;29;20060;-65
2023/04/15 02:53:47;;;;;;;5.45;4.10;;;6.90;99.90;;;;;;4886522;29;20067;-65
2023/04/15 02:56:15;;;;;;;6.45;4.28;;;6.90;99.90;;;;;;4889442;29;20803;-67
2023/04/15 02:58:44;;;;;;;5.43;4.00;;;6.90;99.90;;;;;;4889017;29;20052;-66
2023/04/15 03:01:10;;;;;;;5.57;5.00;;;6.90;99.90;;;;;;4869215;29;20145;-65
2023/04/15 03:03:38;;;;;;;9.45;4.65;;;6.90;99.90;;;;;;4894909;29;20068;-62
2023/04/15 03:06:05;;;;;;;10.73;4.97;;;6.90;99.90;;;;;;4892177;29;20479;-71
2023/04/15 03:08:33;;;;;;;8.18;3.90;;;6.90;99.90;;;;;;4887526;29;20048;-63
2023/04/15 03:11:01;;;;;;;7.15;3.90;;;6.90;99.90;;;;;;4887876;29;20139;-66
2023/04/15 03:13:28;;;;;;;9.73;4.50;;;6.90;99.90;;;;;;4886988;29;20052;-66
2023/04/15 03:15:56;;;;;;;4.63;3.92;;;6.90;99.90;;;;;;4863902;29;20116;-63
2023/04/15 03:18:23;;;;;;;7.63;3.65;;;6.90;99.90;;;;;;4885735;29;20059;-64
2023/04/15 03:20:50;;;;;;;7.22;3.50;;;6.90;99.90;;;;;;4888718;29;20135;-64
2023/04/15 03:23:17;;;;;;;5.45;3.83;;;6.90;99.90;;;;;;4868854;29;20388;-64
2023/04/15 03:25:45;;;;;;;6.25;3.90;;;6.90;99.90;;;;;;4874438;29;20060;-64
2023/04/15 03:28:13;;;;;;;7.20;3.67;;;6.90;99.90;;;;;;4862079;29;20055;-65
2023/04/15 03:30:40;;;;;;;7.07;3.88;;;6.90;99.90;;;;;;4872671;29;20395;-64
2023/04/15 03:33:08;;;;;;;8.45;4.75;;;6.80;99.90;;;;;;4878642;29;20049;-64
2023/04/15 03:35:35;;;;;;;5.25;3.38;;;6.90;99.90;;;;;;4885750;29;20048;-65
2023/04/15 03:38:02;;;;;;;11.50;3.55;;;6.90;99.90;;;;;;4889464;29;20044;-65
2023/04/15 03:40:29;;;;;;;5.70;4.35;;;6.90;99.90;;;;;;4887470;29;20799;-64
2023/04/15 03:42:56;;;;;;;5.57;3.70;;;6.90;99.90;;;;;;4891159;29;20119;-66
2023/04/15 03:45:23;;;;;;;6.25;3.55;;;6.90;99.90;;;;;;4891388;29;20052;-65
2023/04/15 03:47:50;;;;;;;4.72;4.28;;;6.90;99.90;;;;;;4890771;29;20088;-64
2023/04/15 03:50:17;;;;;;;7.10;4.28;;;6.90;99.90;;;;;;4886765;29;20048;-67
2023/04/15 03:52:44;;;;;;;6.63;4.22;;;6.80;99.90;;;;;;4889758;29;20048;-62
2023/04/15 03:55:11;;;;;;;5.15;4.20;;;6.80;99.90;;;;;;4888329;29;20416;-63
2023/04/15 03:57:38;;;;;;;8.07;3.58;;;6.80;99.90;;;;;;4880355;29;20472;-65
2023/04/15 04:00:08;;;;;;;5.97;3.75;;;6.80;99.90;;;;;;4889044;29;20071;-64
2023/04/15 04:02:37;;;;;;;4.93;3.38;;;6.80;99.90;;;;;;4886671;29;20051;-68
2023/04/15 04:05:05;;;;;;;9.38;6.00;;;6.80;99.90;;;;;;4885032;29;20052;-66
2023/04/15 04:07:32;;;;;;;9.60;4.35;;;6.80;99.90;;;;;;4888900;29;20063;-65
2023/04/15 04:09:58;;;;;;;4.95;3.40;;;6.80;99.90;;;;;;4888087;29;20132;-69
2023/04/15 04:12:25;;;;;;;5.65;3.83;;;6.80;99.90;;;;;;4886397;29;20062;-65
2023/04/15 04:14:52;;;;;;;7.43;3.60;;;6.70;99.90;;;;;;4888428;29;20055;-64
2023/04/15 04:17:19;;;;;;;5.57;4.78;;;6.70;99.90;;;;;;4890208;29;20052;-67
2023/04/15 04:19:46;;;;;;;5.28;4.75;;;6.80;99.90;;;;;;4889953;29;20064;-64
2023/04/15 04:22:13;;;;;;;5.97;4.18;;;6.80;99.90;;;;;;4887781;29;20211;-66
2023/04/15 04:24:40;;;;;;;8.43;5.30;;;6.80;99.90;;;;;;4889813;29;20669;-66
2023/04/15 04:27:06;;;;;;;9.57;5.00;;;6.70;99.90;;;;;;4890589;29;20056;-67
2023/04/15 04:29:33;;;;;;;17.67;4.28;;;6.70;99.90;;;;;;4888451;29;20511;-64
2023/04/15 04:32:00;;;;;;;4.78;3.42;;;6.70;99.90;;;;;;4888397;29;20176;-67
2023/04/15 04:34:27;;;;;;;7.60;4.50;;;6.70;99.90;;;;;;4887409;29;25330;-68
2023/04/15 04:36:54;;;;;;;7.47;3.97;;;6.70;99.90;;;;;;4888229;29;20716;-65
2023/04/15 04:39:21;;;;;;;11.73;4.68;;;6.70;99.90;;;;;;4893423;29;20052;-63
2023/04/15 04:41:49;;;;;;;7.80;3.83;;;6.70;99.90;;;;;;4889717;29;20063;-68
2023/04/15 04:44:15;;;;;;;12.20;4.03;;;6.80;99.90;;;;;;4886249;29;20048;-64
2023/04/15 04:46:42;;;;;;;10.65;4.85;;;6.80;99.90;;;;;;4887830;29;20043;-63
2023/04/15 04:49:09;;;;;;;5.55;4.28;;;6.80;99.90;;;;;;4888752;29;20051;-66
2023/04/15 04:51:36;;;;;;;9.73;4.93;;;6.80;99.90;;;;;;4888387;29;20036;-62
2023/04/15 04:54:03;;;;;;;5.85;4.60;;;6.80;99.90;;;;;;4890169;29;20059;-65
2023/04/15 04:56:30;;;;;;;6.28;3.97;;;6.90;99.90;;;;;;4885711;29;20079;-66
2023/04/15 04:58:57;;;;;;;12.25;4.03;;;6.90;99.90;;;;;;4888806;29;20084;-66
2023/04/15 05:01:25;;;;;;;4.25;3.67;;;6.90;99.90;;;;;;4887706;29;20116;-66
2023/04/15 05:03:52;;;;;;;6.85;3.90;;;7.00;99.90;;;;;;4888794;29;20052;-68
2023/04/15 05:06:19;;;;;;;9.23;4.18;;;7.00;99.90;;;;;;4885496;29;20538;-64
2023/04/15 05:08:47;;;;;;;9.95;4.40;;;7.00;99.90;;;;;;4891580;29;20052;-64
2023/04/15 05:11:14;;;;;;;8.98;4.07;;;7.00;99.90;;;;;;4888809;29;20048;-68
2023/04/15 05:13:41;;;;;;;6.75;4.35;;;7.10;99.90;;;;;;4891607;29;20147;-67
2023/04/15 05:16:08;;;;;;;5.05;4.15;;;7.10;99.90;;;;;;4890355;29;20502;-65
2023/04/15 05:18:35;;;;;;;5.15;4.53;;;7.10;99.90;;;;;;4893615;29;20040;-64
2023/04/15 05:21:02;;;;;;;9.90;4.40;;;7.10;99.90;;;;;;4896117;29;20059;-66
2023/04/15 05:23:29;;;;;;;6.07;3.88;;;7.20;99.90;;;;;;4890515;29;20578;-64
2023/04/15 05:25:56;;;;;;;7.15;4.28;;;7.30;99.90;;;;;;4891601;29;20515;-66
2023/04/15 05:28:23;;;;;;;5.10;4.00;;;7.30;99.90;;;;;;4890088;29;20052;-65
2023/04/15 05:30:50;;;;;;;8.70;4.88;;;7.30;99.90;;;;;;4893584;29;20138;-65
2023/04/15 05:33:16;;;;;;;5.35;3.95;;;7.30;99.90;;;;;;4891577;29;20112;-63
2023/04/15 05:35:43;;;;;;;8.20;4.55;;;7.40;99.90;;;;;;4891769;29;20052;-64
2023/04/15 05:38:10;;;;;;;9.68;4.88;;;7.40;99.90;;;;;;4891027;29;20062;-65
2023/04/15 05:40:37;;;;;;;9.93;4.95;;;7.40;99.90;;;;;;4890167;29;20456;-62
2023/04/15 05:43:04;;;;;;;14.52;5.85;;;7.50;99.90;;;;;;4890430;29;20056;-65
2023/04/15 05:45:31;;;;;;;5.93;4.60;;;7.60;99.90;;;;;;4893618;29;20057;-64
2023/04/15 05:47:58;;;;;;;5.10;3.72;;;7.70;99.90;;;;;;4890534;29;20155;-62
2023/04/15 05:50:25;;;;;;;5.97;3.72;;;7.70;99.90;;;;;;4887332;29;20076;-67
2023/04/15 05:52:52;;;;;;;10.32;4.43;;;7.80;99.90;;;;;;4889673;29;20643;-64
2023/04/15 05:55:18;;;;;;;5.35;4.38;;;7.90;99.90;;;;;;4889312;29;20040;-62
2023/04/15 05:57:45;;;;;;;5.32;4.82;;;8.10;99.90;;;;;;4889960;29;20050;-62
2023/04/15 06:00:14;;;;;;;9.32;3.97;;;8.10;99.90;;;;;;4887287;29;20510;-67
2023/04/15 06:02:41;;;;;;;5.68;4.25;;;8.20;99.90;;;;;;4889388;29;20049;-64
2023/04/15 06:05:09;;;;;;;5.93;3.88;;;8.30;99.90;;;;;;4885943;29;20155;-63
2023/04/15 06:07:37;;;;;;;6.25;4.50;;;8.40;99.90;;;;;;4890026;29;20044;-63
2023/04/15 06:10:05;;;;;;;6.40;4.68;;;8.30;99.90;;;;;;4889960;29;20433;-66
2023/04/15 06:12:32;;;;;;;6.93;3.85;;;8.40;99.90;;;;;;4888112;29;20549;-63
2023/04/15 06:14:59;;;;;;;7.53;4.85;;;8.40;99.90;;;;;;4890687;29;20536;-69
2023/04/15 06:17:26;;;;;;;9.20;4.07;;;8.50;99.90;;;;;;4888719;29;20048;-65
2023/04/15 06:19:54;;;;;;;6.45;5.35;;;8.50;99.90;;;;;;4887908;29;20041;-63
2023/04/15 06:22:22;;;;;;;10.65;5.05;;;8.50;99.90;;;;;;4884940;29;20138;-65
2023/04/15 06:24:50;;;;;;;10.10;5.32;;;8.50;99.90;;;;;;4889093;29;20854;-64
2023/04/15 06:27:17;;;;;;;6.53;3.95;;;8.60;99.90;;;;;;4888564;29;20135;-65
2023/04/15 06:29:44;;;;;;;10.13;4.45;;;8.60;99.90;;;;;;4886745;29;20056;-64
2023/04/15 06:32:11;;;;;;;8.60;4.72;;;8.60;99.90;;;;;;4887453;29;20056;-67
2023/04/15 06:34:39;;;;;;;5.95;4.20;;;8.70;99.90;;;;;;4888814;29;20415;-63
2023/04/15 06:37:06;;;;;;;6.45;5.00;;;8.70;99.90;;;;;;4884650;29;20578;-68
2023/04/15 06:39:32;;;;;;;8.00;4.20;;;8.80;99.90;;;;;;4889931;29;20716;-66
2023/04/15 06:42:00;;;;;;;7.85;4.70;;;8.90;99.90;;;;;;4888838;29;20052;-65
2023/04/15 06:44:27;;;;;;;8.77;4.72;;;9.00;99.90;;;;;;4884988;29;20488;-65
2023/04/15 06:46:54;;;;;;;8.57;5.63;;;9.00;99.90;;;;;;4889419;29;20728;-65
2023/04/15 06:49:21;;;;;;;9.43;4.70;;;8.90;99.90;;;;;;4889710;29;20060;-66
2023/04/15 06:51:48;;;;;;;7.57;4.40;;;9.00;99.90;;;;;;4889117;29;20047;-64
2023/04/15 06:54:15;;;;;;;8.02;4.70;;;9.00;99.90;;;;;;4887478;29;20057;-66
2023/04/15 06:56:42;;;;;;;9.75;5.85;;;9.00;99.90;;;;;;4889252;29;20048;-65
2023/04/15 06:59:09;;;;;;;6.25;4.35;;;9.10;99.90;;;;;;4887987;29;20056;-63
2023/04/15 07:01:35;;;;;;;6.45;4.65;;;9.10;99.90;;;;;;4888424;29;20062;-63
2023/04/15 07:04:02;;;;;;;7.05;5.00;;;9.20;99.90;;;;;;4889285;29;20692;-65
2023/04/15 07:06:29;;;;;;;7.68;5.20;;;9.30;99.90;;;;;;4881946;29;20063;-66
2023/04/15 07:08:56;;;;;;;9.10;5.18;;;9.30;99.90;;;;;;4885156;29;20063;-63
2023/04/15 07:11:25;;;;;;;6.50;4.97;;;9.40;99.90;;;;;;4886460;29;20131;-64
2023/04/15 07:13:52;;;;;;;6.15;4.57;;;9.40;99.90;;;;;;4885745;29;20052;-64
2023/04/15 07:16:20;;;;;;;9.77;5.53;;;9.40;99.90;;;;;;4883886;29;20044;-69
2023/04/15 07:18:46;;;;;;;6.68;4.70;;;9.50;99.90;;;;;;4886823;29;20438;-66
2023/04/15 07:21:13;;;;;;;8.95;5.63;;;9.50;99.90;;;;;;4887814;29;20044;-65
2023/04/15 07:23:41;;;;;;;8.52;5.70;;;9.60;99.90;;;;;;4885360;29;20566;-67
2023/04/15 07:26:08;;;;;;;10.27;5.32;;;9.70;99.90;;;;;;4884123;29;20094;-65
2023/04/15 07:28:35;;;;;;;7.47;5.28;;;9.80;99.90;;;;;;4883050;29;20048;-68
2023/04/15 07:31:01;;;;;;;5.70;5.20;;;9.70;99.90;;;;;;4887078;29;20055;-67
2023/04/15 07:33:28;;;;;;;12.43;5.80;;;9.80;99.90;;;;;;4885638;29;20050;-64
2023/04/15 07:35:55;;;;;;;8.20;4.78;;;9.80;99.90;;;;;;4887280;29;20080;-67
2023/04/15 07:38:22;;;;;;;6.85;5.28;;;10.00;99.90;;;;;;4882631;29;20055;-66
2023/04/15 07:40:49;;;;;;;6.03;4.63;;;10.10;99.90;;;;;;4887841;29;20044;-64
2023/04/15 07:43:16;;;;;;;6.30;5.28;;;10.30;99.90;;;;;;4882055;29;20048;-68
2023/04/15 07:45:43;;;;;;;5.85;4.63;;;10.50;99.90;;;;;;4889536;29;20051;-66
2023/04/15 07:48:10;;;;;;;9.25;5.07;;;10.70;99.90;;;;;;4884733;29;20053;-68
2023/04/15 07:50:37;;;;;;;8.50;5.35;;;10.70;99.90;;;;;;4887544;29;20044;-64
2023/04/15 07:53:05;;;;;;;6.55;4.82;;;10.80;99.90;;;;;;4882347;29;20057;-64
2023/04/15 07:55:32;;;;;;;9.25;4.78;;;10.90;99.90;;;;;;4884939;29;20056;-63
2023/04/15 07:57:58;;;;;;;8.18;5.72;;;11.00;99.90;;;;;;4886053;29;20064;-67
2023/04/15 08:00:25;;;;;;;6.78;4.95;;;11.10;99.90;;;;;;4882337;29;20056;-66
2023/04/15 08:02:52;;;;;;;15.95;5.72;;;11.20;99.90;;;;;;4886740;29;20048;-63
2023/04/15 08:05:20;;;;;;;9.32;4.40;;;11.20;99.90;;;;;;4888044;29;20067;-67
2023/04/15 08:07:47;;;;;;;10.40;5.18;;;11.10;99.90;;;;;;4885929;29;20104;-66
2023/04/15 08:10:13;;;;;;;8.30;4.90;;;11.20;99.90;;;;;;4884632;29;20048;-65
2023/04/15 08:12:41;;;;;;;9.20;4.32;;;11.30;99.90;;;;;;4884758;29;20108;-65
2023/04/15 08:15:08;;;;;;;10.50;5.47;;;11.30;99.90;;;;;;4884433;29;20049;-65
2023/04/15 08:17:35;;;;;;;6.40;4.43;;;11.40;99.90;;;;;;4882125;29;20051;-65
2023/04/15 08:20:04;;;;;;;5.22;4.50;;;11.60;99.90;;;;;;4883560;29;20118;-67
2023/04/15 08:22:31;;;;;;;10.48;5.03;;;11.70;99.90;;;;;;4884283;29;20075;-66
2023/04/15 08:24:58;;;;;;;5.68;4.28;;;11.90;99.90;;;;;;4885528;29;20052;-65
2023/04/15 08:27:25;;;;;;;8.48;5.03;;;11.90;99.90;;;;;;4884317;29;20391;-66
2023/04/15 08:29:52;;;;;;;6.57;4.63;;;11.80;99.90;;;;;;4886707;29;20475;-67
2023/04/15 08:32:19;;;;;;;8.63;5.30;;;11.80;99.90;;;;;;4885628;29;20064;-62
2023/04/15 08:34:46;;;;;;;7.57;4.45;;;11.80;99.90;;;;;;4887660;29;20131;-63
2023/04/15 08:37:13;;;;;;;10.77;6.07;;;11.80;99.90;;;;;;4884152;29;20048;-66
2023/04/15 08:39:39;;;;;;;5.85;4.47;;;11.90;99.90;;;;;;4886137;29;20052;-66
2023/04/15 08:42:15;;;;;;;9.05;5.97;;;12.00;99.90;;;;;;4888499;29;20056;-69
2023/04/15 08:44:43;;;;;;;11.57;5.63;;;12.00;99.90;;;;;;4890343;29;20136;-63
2023/04/15 08:47:12;;;;;;;5.70;5.10;;;12.00;99.90;;;;;;4891329;29;20048;-64
2023/04/15 08:49:43;;;;;;;10.10;5.10;;;12.00;99.90;;;;;;4888273;29;20135;-65
2023/04/15 08:52:11;;;;;;;8.60;4.55;;;12.10;99.90;;;;;;4886669;29;20096;-64
2023/04/15 08:54:37;;;;;;;9.88;5.35;;;12.10;99.90;;;;;;4884026;29;20041;-68
2023/04/15 08:57:05;;;;;;;9.20;4.97;;;12.10;99.90;;;;;;4893987;29;20156;-65
2023/04/15 08:59:32;;;;;;;7.13;5.13;;;12.10;99.90;;;;;;4891269;29;20371;-63
2023/04/15 09:01:59;;;;;;;7.07;5.03;;;12.10;99.90;;;;;;4890578;29;20063;-64
2023/04/15 09:04:27;;;;;;;10.00;6.53;;;12.10;99.90;;;;;;4890006;29;20052;-63
2023/04/15 09:06:54;;;;;;;8.50;4.55;;;12.00;99.90;;;;;;4891656;29;20051;-64
2023/04/15 09:09:21;;;;;;;6.18;5.13;;;11.90;99.90;;;;;;4891686;29;20522;-66
2023/04/15 09:11:50;;;;;;;7.97;4.93;;;12.10;99.90;;;;;;4891290;29;20079;-67
2023/04/15 09:14:17;;;;;;;7.35;5.57;;;12.00;99.90;;;;;;4888309;29;20058;-65
2023/04/15 09:17:01;;;;;;;10.13;5.57;;;12.10;99.90;;;;;;4887813;29;20048;-64
2023/04/15 09:19:28;;;;;;;6.93;5.28;;;12.30;99.90;;;;;;4892393;29;20052;-65
2023/04/15 09:21:57;;;;;;;7.60;5.43;;;12.40;99.90;;;;;;4889354;29;20049;-66
2023/04/15 09:24:36;;;;;;;12.75;6.43;;;12.40;99.90;;;;;;4889198;29;20052;-64
2023/04/15 09:27:03;;;;;;;7.57;5.50;;;12.40;99.90;;;;;;4887279;29;20056;-63
2023/04/15 09:29:30;;;;;;;5.97;4.60;;;12.40;99.90;;;;;;4891973;29;20054;-63
2023/04/15 09:32:17;;;;;;;7.78;6.05;;;12.50;99.90;;;;;;4890382;29;20067;-66
2023/04/15 09:34:44;;;;;;;9.93;5.82;;;12.60;99.90;;;;;;4886832;29;20060;-69
2023/04/15 09:37:12;;;;;;;33.97;7.95;;;12.80;99.90;;;;;;4888663;29;20152;-67
2023/04/15 09:39:57;;;;;;;21.88;5.90;;;12.80;99.90;;;;;;4892590;29;20089;-70
2023/04/15 09:42:25;;;;;;;10.85;6.18;;;12.70;99.90;;;;;;4886830;29;20044;-69
2023/04/15 09:44:52;;;;;;;11.38;6.90;;;12.70;99.90;;;;;;4888992;29;20052;-66
2023/04/15 09:47:30;;;;;;;10.05;5.22;;;12.80;99.90;;;;;;4886951;29;20635;-69
2023/04/15 09:49:59;;;;;;;14.80;5.72;;;12.80;99.90;;;;;;4891472;29;20060;-65
2023/04/15 09:52:27;;;;;;;7.93;6.10;;;13.00;99.90;;;;;;4886894;29;20093;-65
2023/04/15 09:54:57;;;;;;;8.70;6.60;;;13.10;99.90;;;;;;4887648;29;20808;-65
2023/04/15 09:57:30;;;;;;;6.15;5.35;;;13.10;99.90;;;;;;4889707;29;20800;-64
2023/04/15 09:59:57;;;;;;;14.63;7.75;;;13.10;99.90;;;;;;4890612;29;20117;-65
2023/04/15 10:02:26;;;;;;;8.50;6.57;;;13.10;99.90;;;;;;4888230;29;20044;-66
2023/04/15 10:04:53;;;;;;;9.70;6.50;;;13.10;99.90;;;;;;4889592;29;20579;-66
2023/04/15 10:07:21;;;;;;;18.27;7.45;;;13.10;99.90;;;;;;4889681;29;20049;-66
2023/04/15 10:09:48;;;;;;;6.65;6.03;;;13.20;99.90;;;;;;4886763;29;20064;-70
2023/04/15 10:12:19;;;;;;;10.02;5.90;;;13.20;99.90;;;;;;4885487;29;20048;-66
2023/04/15 10:14:57;;;;;;;10.85;6.53;;;13.10;99.90;;;;;;4888700;29;20056;-70
2023/04/15 10:17:26;;;;;;;8.02;6.85;;;13.20;99.90;;;;;;4889712;29;20048;-65
2023/04/15 10:19:55;;;;;;;11.48;6.57;;;13.40;99.90;;;;;;4891853;29;20172;-71
2023/04/15 10:22:23;;;;;;;9.48;6.22;;;13.60;99.90;;;;;;4884756;29;20068;-67
2023/04/15 10:24:51;;;;;;;9.38;5.90;;;13.60;99.90;;;;;;4889795;29;20854;-71
2023/04/15 10:27:19;;;;;;;7.18;6.03;;;13.50;99.90;;;;;;4887710;29;20143;-66
2023/04/15 10:29:48;;;;;;;8.38;5.22;;;13.40;99.90;;;;;;4893278;29;20048;-66
2023/04/15 10:32:19;;;;;;;10.63;6.72;;;13.40;99.90;;;;;;4887531;29;20139;-68
2023/04/15 10:34:51;;;;;;;14.50;6.90;;;13.40;99.90;;;;;;4893431;29;20072;-67
2023/04/15 10:37:40;;;;;;;12.52;6.93;;;13.50;99.90;;;;;;4888432;29;20076;-66
2023/04/15 10:40:26;;;;;;;9.85;6.45;;;13.50;99.90;;;;;;4888423;29;20120;-67
2023/04/15 10:42:59;;;;;;;17.05;8.05;;;13.50;99.90;;;;;;4887439;29;20136;-65
2023/04/15 10:45:31;;;;;;;11.48;6.43;;;13.60;99.90;;;;;;4891694;29;20045;-68
2023/04/15 10:48:01;;;;;;;15.65;7.15;;;13.70;99.90;;;;;;4890197;29;20052;-66
2023/04/15 10:50:33;;;;;;;12.70;7.15;;;13.80;99.90;;;;;;4890468;29;20108;-66
2023/04/15 10:53:01;;;;;;;;;;;13.90;99.90;;;;;;4889502;29;20091;-73
2023/04/15 10:55:32;;;;;;;10.50;6.32;;;13.90;99.90;;;;;;4887379;29;19930;-65
2023/04/15 10:58:00;;;;;;;7.28;6.45;;;14.00;99.90;;;;;;4891312;29;20144;-65
2023/04/15 11:00:31;;;;;;;8.35;6.32;;;14.10;99.90;;;;;;4889037;29;20485;-64
2023/04/15 11:03:06;;;;;;;10.55;7.40;;;14.20;99.90;;;;;;4888675;29;20063;-69
2023/04/15 11:05:48;;;;;;;8.50;6.50;;;14.20;99.90;;;;;;4889035;29;20052;-67
2023/04/15 11:08:16;;;;;;;11.00;7.00;;;14.20;99.90;;;;;;4888122;29;20052;-69
2023/04/15 11:10:42;;;;;;;15.48;7.07;;;14.30;99.90;;;;;;4889276;29;20119;-68
2023/04/15 11:13:20;;;;;;;9.55;8.00;;;14.30;99.90;;;;;;4885168;29;20503;-65
2023/04/15 11:15:48;;;;;;;10.88;7.15;;;14.40;99.90;;;;;;4886171;29;20782;-70
2023/04/15 11:18:16;;;;;;;11.77;6.57;;;14.40;99.90;;;;;;4884067;29;20151;-67
2023/04/15 11:20:53;;;;;;;14.30;6.72;;;14.40;99.90;;;;;;4888325;29;20531;-70
2023/04/15 11:23:35;;;;;;;6.82;5.63;;;14.40;99.90;;;;;;4884920;29;20048;-64
2023/04/15 11:26:05;;;;;;;10.35;7.05;;;14.30;99.90;;;;;;4888939;29;20555;-67
2023/04/15 11:28:32;;;;;;;9.05;6.63;;;14.40;99.90;;;;;;4885553;29;20487;-67
2023/04/15 11:31:13;;;;;;;9.73;6.20;;;14.20;99.90;;;;;;4890266;29;20142;-66
2023/04/15 11:33:56;;;;;;;8.98;6.38;;;14.30;99.90;;;;;;4888414;29;20092;-68
2023/04/15 11:36:27;;;;;;;7.70;6.88;;;14.40;99.90;;;;;;4888555;29;20087;-63
2023/04/15 11:38:56;;;;;;;9.35;7.57;;;14.40;99.90;;;;;;4888964;29;20048;-63
2023/04/15 11:41:23;;;;;;;10.25;6.70;;;14.40;99.90;;;;;;4887287;29;20052;-67
2023/04/15 11:43:51;;;;;;;14.80;7.03;;;14.40;99.90;;;;;;4889715;29;20048;-66
2023/04/15 11:46:18;;;;;;;8.73;5.50;;;14.50;99.90;;;;;;4885972;29;20055;-65
2023/04/15 11:48:46;;;;;;;9.75;8.02;;;14.50;99.90;;;;;;4868054;29;20160;-71
2023/04/15 11:51:13;;;;;;;9.52;7.47;;;14.50;99.90;;;;;;4887352;29;20049;-64
2023/04/15 11:53:40;;;;;;;11.40;6.68;;;14.30;99.90;;;;;;4885828;29;20068;-65
2023/04/15 11:56:09;;;;;;;8.70;7.03;;;14.40;99.90;;;;;;4887030;29;20048;-68
2023/04/15 11:58:38;;;;;;;8.07;6.93;;;14.50;99.90;;;;;;4884176;29;20858;-65
2023/04/15 12:01:06;;;;;;;10.50;6.45;;;14.80;99.90;;;;;;4888774;29;20068;-68
2023/04/15 12:03:46;;;;;;;11.68;6.53;;;14.70;99.90;;;;;;4885445;29;20045;-65
2023/04/15 12:06:19;;;;;;;;;;;14.40;99.90;;;;;;4886653;29;20159;-66
2023/04/15 12:08:51;;;;;;;16.38;6.68;;;14.40;99.90;;;;;;4889114;29;19963;-63
2023/04/15 12:11:51;;;;;;;8.65;5.68;;;14.40;99.90;;;;;;4888001;29;20048;-64
2023/04/15 12:14:32;;;;;;;14.40;5.88;;;14.40;99.90;;;;;;4875885;29;20616;-72
2023/04/15 12:17:00;;;;;;;8.40;6.20;;;14.40;99.90;;;;;;4887819;29;20052;-67
2023/04/15 12:19:30;;;;;;;11.10;6.47;;;14.60;99.90;;;;;;4888157;29;20080;-60
2023/04/15 12:22:04;;;;;;;12.05;6.40;;;14.70;99.90;;;;;;4884037;29;20423;-62
2023/04/15 12:24:32;;;;;;;12.65;7.00;;;14.70;99.90;;;;;;4886339;29;20056;-65
2023/04/15 12:27:10;;;;;;;10.10;5.97;;;14.80;99.90;;;;;;4888342;29;20052;-66
2023/04/15 12:29:38;;;;;;;24.05;7.88;;;14.70;99.90;;;;;;4888470;29;20055;-63
2023/04/15 12:32:08;;;;;;;9.02;6.75;;;14.80;99.90;;;;;;4888684;29;20055;-68
2023/04/15 12:34:40;;;;;;;10.52;6.18;;;14.90;99.90;;;;;;4887353;29;20053;-66
2023/04/15 12:37:09;;;;;;;7.78;6.53;;;14.70;99.90;;;;;;4885504;29;20059;-65
2023/04/15 12:39:38;;;;;;;8.77;6.22;;;14.60;99.90;;;;;;4888120;29;20064;-64
2023/04/15 12:42:06;;;;;;;8.45;6.00;;;14.50;99.90;;;;;;4886527;29;20147;-70
2023/04/15 12:44:34;;;;;;;16.35;9.00;;;14.50;99.90;;;;;;4888271;29;20044;-63
2023/04/15 12:47:02;;;;;;;8.18;6.15;;;14.20;99.90;;;;;;4886859;29;20108;-70
2023/04/15 12:49:31;;;;;;;9.07;6.05;;;13.90;99.90;;;;;;4888900;29;20452;-63
2023/04/15 12:51:59;;;;;;;13.00;6.53;;;13.70;99.90;;;;;;4888293;29;20147;-66
2023/04/15 12:54:27;;;;;;;7.78;5.97;;;13.70;99.90;;;;;;4888679;29;20070;-67
2023/04/15 12:56:55;;;;;;;11.30;5.57;;;13.70;99.90;;;;;;4885695;29;20056;-65